Time;durP1;ratioP1;P1;durP2;ratioP2;P2;SDS_P1;SDS_P2;PMS_P1;PMS_P2;Temp;Humidity;BMP_temperature;BMP_pressure;BME280_temperature;BME280_humidity;BME280_pressure;Samples;Min_cycle;Max_cycle;Signal;HPM_P1;HPM_P2
2020/12/15 00:01:02;;;;;;;1.35;1.25;;;11.6;99.9;;;;;;;;;
2020/12/15 00:02:02;;;;;;;1.63;0.88;;;11.6;99.9;;;;;;;;;
2020/12/15 00:03:02;;;;;;;1.42;1.02;;;11.6;99.9;;;;;;;;;
2020/12/15 00:03:16;;;;;;;1.42;1.02;;;11.6;99.9;;;;;;;;;
2020/12/15 00:04:02;;;;;;;1.2;0.95;;;11.5;99.9;;;;;;;;;
2020/12/15 00:04:13;;;;;;;1.2;0.95;;;11.5;99.9;;;;;;;;;
2020/12/15 00:05:02;;;;;;;1.52;1.35;;;11.6;99.9;;;;;;;;;
2020/12/15 00:05:14;;;;;;;1.52;1.35;;;11.6;99.9;;;;;;;;;
2020/12/15 00:05:30;;;;;;;1.5;1.3;;;11.6;99.9;;;;;;;;;
2020/12/15 00:06:02;;;;;;;1.5;1.3;;;11.6;99.9;;;;;;;;;
2020/12/15 00:06:15;;;;;;;1.5;1.3;;;11.6;99.9;;;;;;;;;
2020/12/15 00:06:26;;;;;;;1.5;1.3;;;11.6;99.9;;;;;;;;;
2020/12/15 00:07:02;;;;;;;1.4;1.17;;;11.6;99.9;;;;;;;;;
2020/12/15 00:07:17;;;;;;;1.4;1.17;;;11.6;99.9;;;;;;;;;
2020/12/15 00:07:27;;;;;;;1.4;1.17;;;11.6;99.9;;;;;;;;;
2020/12/15 00:07:43;;;;;;;1.33;1.23;;;11.6;99.9;;;;;;;;;
2020/12/15 00:08:02;;;;;;;1.33;1.23;;;11.6;99.9;;;;;;;;;
2020/12/15 00:08:13;;;;;;;1.33;1.23;;;11.6;99.9;;;;;;;;;
2020/12/15 00:08:29;;;;;;;1.33;1.23;;;11.6;99.9;;;;;;;;;
2020/12/15 00:08:44;;;;;;;1.27;1.02;;;11.7;99.9;;;;;;;;;
2020/12/15 00:09:02;;;;;;;1.27;1.02;;;11.7;99.9;;;;;;;;;
2020/12/15 00:09:15;;;;;;;1.27;1.02;;;11.7;99.9;;;;;;;;;
2020/12/15 00:09:30;;;;;;;1.27;1.02;;;11.7;99.9;;;;;;;;;
2020/12/15 00:09:43;;;;;;;2.85;1.15;;;11.6;99.9;;;;;;;;;
2020/12/15 00:09:56;;;;;;;2.85;1.15;;;11.6;99.9;;;;;;;;;
2020/12/15 00:10:02;;;;;;;2.85;1.15;;;11.6;99.9;;;;;;;;;
2020/12/15 00:10:16;;;;;;;2.85;1.15;;;11.6;99.9;;;;;;;;;
2020/12/15 00:10:26;;;;;;;2.85;1.15;;;11.6;99.9;;;;;;;;;
2020/12/15 00:10:42;;;;;;;1.8;1.15;;;11.7;99.9;;;;;;;;;
2020/12/15 00:10:57;;;;;;;1.8;1.15;;;11.7;99.9;;;;;;;;;
2020/12/15 00:11:02;;;;;;;1.8;1.15;;;11.7;99.9;;;;;;;;;
2020/12/15 00:11:12;;;;;;;1.8;1.15;;;11.7;99.9;;;;;;;;;
2020/12/15 00:11:28;;;;;;;1.8;1.15;;;11.7;99.9;;;;;;;;;
2020/12/15 00:11:43;;;;;;;1.52;1.17;;;11.7;99.9;;;;;;;;;
2020/12/15 00:11:53;;;;;;;1.52;1.17;;;11.7;99.9;;;;;;;;;
2020/12/15 00:12:02;;;;;;;1.52;1.17;;;11.7;99.9;;;;;;;;;
2020/12/15 00:12:09;;;;;;;1.52;1.17;;;11.7;99.9;;;;;;;;;
2020/12/15 00:12:14;;;;;;;1.52;1.17;;;11.7;99.9;;;;;;;;;
2020/12/15 00:12:29;;;;;;;1.52;1.17;;;11.7;99.9;;;;;;;;;
2020/12/15 00:12:41;;;;;;;1.25;1.02;;;11.7;99.9;;;;;;;;;
2020/12/15 00:12:55;;;;;;;1.25;1.02;;;11.7;99.9;;;;;;;;;
2020/12/15 00:13:02;;;;;;;1.25;1.02;;;11.7;99.9;;;;;;;;;
2020/12/15 00:13:10;;;;;;;1.25;1.02;;;11.7;99.9;;;;;;;;;
2020/12/15 00:13:15;;;;;;;1.25;1.02;;;11.7;99.9;;;;;;;;;
2020/12/15 00:13:31;;;;;;;1.25;1.02;;;11.7;99.9;;;;;;;;;
2020/12/15 00:13:41;;;;;;;2.65;1.1;;;11.6;99.9;;;;;;;;;
2020/12/15 00:13:56;;;;;;;2.65;1.1;;;11.6;99.9;;;;;;;;;
2020/12/15 00:14:02;;;;;;;2.65;1.1;;;11.6;99.9;;;;;;;;;
2020/12/15 00:14:07;;;;;;;2.65;1.1;;;11.6;99.9;;;;;;;;;
2020/12/15 00:14:17;;;;;;;2.65;1.1;;;11.6;99.9;;;;;;;;;
2020/12/15 00:14:27;;;;;;;2.65;1.1;;;11.6;99.9;;;;;;;;;
2020/12/15 00:14:42;;;;;;;1.65;0.82;;;11.6;99.9;;;;;;;;;
2020/12/15 00:14:53;;;;;;;1.65;0.82;;;11.6;99.9;;;;;;;;;
2020/12/15 00:15:02;;;;;;;1.65;0.82;;;11.6;99.9;;;;;;;;;
2020/12/15 00:15:08;;;;;;;1.65;0.82;;;11.6;99.9;;;;;;;;;
2020/12/15 00:15:13;;;;;;;1.65;0.82;;;11.6;99.9;;;;;;;;;
2020/12/15 00:15:28;;;;;;;1.65;0.82;;;11.6;99.9;;;;;;;;;
2020/12/15 00:15:44;;;;;;;1.8;1.1;;;11.6;99.9;;;;;;;;;
2020/12/15 00:15:54;;;;;;;1.8;1.1;;;11.6;99.9;;;;;;;;;
2020/12/15 00:16:02;;;;;;;1.8;1.1;;;11.6;99.9;;;;;;;;;
2020/12/15 00:16:09;;;;;;;1.8;1.1;;;11.6;99.9;;;;;;;;;
2020/12/15 00:16:14;;;;;;;1.8;1.1;;;11.6;99.9;;;;;;;;;
2020/12/15 00:16:30;;;;;;;1.8;1.1;;;11.6;99.9;;;;;;;;;
2020/12/15 00:16:40;;;;;;;2;1.02;;;11.6;99.9;;;;;;;;;
2020/12/15 00:16:55;;;;;;;2;1.02;;;11.6;99.9;;;;;;;;;
2020/12/15 00:17:01;;;;;;;2;1.02;;;11.6;99.9;;;;;;;;;
2020/12/15 00:17:06;;;;;;;2;1.02;;;11.6;99.9;;;;;;;;;
2020/12/15 00:17:16;;;;;;;2;1.02;;;11.6;99.9;;;;;;;;;
2020/12/15 00:17:26;;;;;;;2;1.02;;;11.6;99.9;;;;;;;;;
2020/12/15 00:17:42;;;;;;;1.5;1;;;11.7;99.9;;;;;;;;;
2020/12/15 00:17:57;;;;;;;1.5;1;;;11.7;99.9;;;;;;;;;
2020/12/15 00:18:02;;;;;;;1.5;1;;;11.7;99.9;;;;;;;;;
2020/12/15 00:18:07;;;;;;;1.5;1;;;11.7;99.9;;;;;;;;;
2020/12/15 00:18:12;;;;;;;1.5;1;;;11.7;99.9;;;;;;;;;
2020/12/15 00:18:28;;;;;;;1.5;1;;;11.7;99.9;;;;;;;;;
2020/12/15 00:18:43;;;;;;;1.92;1.15;;;11.7;99.9;;;;;;;;;
2020/12/15 00:18:54;;;;;;;1.92;1.15;;;11.7;99.9;;;;;;;;;
2020/12/15 00:19:02;;;;;;;1.92;1.15;;;11.7;99.9;;;;;;;;;
2020/12/15 00:19:09;;;;;;;1.92;1.15;;;11.7;99.9;;;;;;;;;
2020/12/15 00:19:14;;;;;;;1.92;1.15;;;11.7;99.9;;;;;;;;;
2020/12/15 00:19:29;;;;;;;1.92;1.15;;;11.7;99.9;;;;;;;;;
2020/12/15 00:19:39;;;;;;;2.28;1.1;;;11.6;99.9;;;;;;;;;
2020/12/15 00:19:55;;;;;;;2.28;1.1;;;11.6;99.9;;;;;;;;;
2020/12/15 00:20:01;;;;;;;2.28;1.1;;;11.6;99.9;;;;;;;;;
2020/12/15 00:20:10;;;;;;;2.28;1.1;;;11.6;99.9;;;;;;;;;
2020/12/15 00:20:15;;;;;;;2.28;1.1;;;11.6;99.9;;;;;;;;;
2020/12/15 00:20:25;;;;;;;2.28;1.1;;;11.6;99.9;;;;;;;;;
2020/12/15 00:20:41;;;;;;;1;0.9;;;11.6;99.9;;;;;;;;;
2020/12/15 00:20:56;;;;;;;1;0.9;;;11.6;99.9;;;;;;;;;
2020/12/15 00:21:02;;;;;;;1;0.9;;;11.6;99.9;;;;;;;;;
2020/12/15 00:21:06;;;;;;;1;0.9;;;11.6;99.9;;;;;;;;;
2020/12/15 00:21:17;;;;;;;1;0.9;;;11.6;99.9;;;;;;;;;
2020/12/15 00:21:28;;;;;;;1;0.9;;;11.6;99.9;;;;;;;;;
2020/12/15 00:21:42;;;;;;;1.2;1.1;;;11.6;99.9;;;;;;;;;
2020/12/15 00:21:52;;;;;;;1.2;1.1;;;11.6;99.9;;;;;;;;;
2020/12/15 00:22:01;;;;;;;1.2;1.1;;;11.6;99.9;;;;;;;;;
2020/12/15 00:22:08;;;;;;;1.2;1.1;;;11.6;99.9;;;;;;;;;
2020/12/15 00:22:13;;;;;;;1.2;1.1;;;11.6;99.9;;;;;;;;;
2020/12/15 00:22:28;;;;;;;1.2;1.1;;;11.6;99.9;;;;;;;;;
2020/12/15 00:22:39;;;;;;;2.08;1.17;;;11.6;99.9;;;;;;;;;
2020/12/15 00:22:54;;;;;;;2.08;1.17;;;11.6;99.9;;;;;;;;;
2020/12/15 00:23:02;;;;;;;2.08;1.17;;;11.6;99.9;;;;;;;;;
2020/12/15 00:23:09;;;;;;;2.08;1.17;;;11.6;99.9;;;;;;;;;
2020/12/15 00:23:14;;;;;;;2.08;1.17;;;11.6;99.9;;;;;;;;;
2020/12/15 00:23:30;;;;;;;2.08;1.17;;;11.6;99.9;;;;;;;;;
2020/12/15 00:23:40;;;;;;;1.33;1;;;11.6;99.9;;;;;;;;;
2020/12/15 00:23:55;;;;;;;1.33;1;;;11.6;99.9;;;;;;;;;
2020/12/15 00:24:02;;;;;;;1.33;1;;;11.6;99.9;;;;;;;;;
2020/12/15 00:24:06;;;;;;;1.33;1;;;11.6;99.9;;;;;;;;;
2020/12/15 00:24:16;;;;;;;1.33;1;;;11.6;99.9;;;;;;;;;
2020/12/15 00:24:26;;;;;;;1.33;1;;;11.6;99.9;;;;;;;;;
2020/12/15 00:24:41;;;;;;;1.75;0.98;;;11.6;99.9;;;;;;;;;
2020/12/15 00:24:52;;;;;;;1.75;0.98;;;11.6;99.9;;;;;;;;;
2020/12/15 00:25:02;;;;;;;1.75;0.98;;;11.6;99.9;;;;;;;;;
2020/12/15 00:25:07;;;;;;;1.75;0.98;;;11.6;99.9;;;;;;;;;
2020/12/15 00:25:12;;;;;;;1.75;0.98;;;11.6;99.9;;;;;;;;;
2020/12/15 00:25:27;;;;;;;1.75;0.98;;;11.6;99.9;;;;;;;;;
2020/12/15 00:25:43;;;;;;;1.45;1.2;;;11.6;99.9;;;;;;;;;
2020/12/15 00:25:53;;;;;;;1.45;1.2;;;11.6;99.9;;;;;;;;;
2020/12/15 00:26:02;;;;;;;1.45;1.2;;;11.6;99.9;;;;;;;;;
2020/12/15 00:26:08;;;;;;;1.45;1.2;;;11.6;99.9;;;;;;;;;
2020/12/15 00:26:14;;;;;;;1.45;1.2;;;11.6;99.9;;;;;;;;;
2020/12/15 00:26:29;;;;;;;1.45;1.2;;;11.6;99.9;;;;;;;;;
2020/12/15 00:26:39;;;;;;;1.3;1.2;;;11.5;99.9;;;;;;;;;
2020/12/15 00:26:55;;;;;;;1.3;1.2;;;11.5;99.9;;;;;;;;;
2020/12/15 00:27:01;;;;;;;1.3;1.2;;;11.5;99.9;;;;;;;;;
2020/12/15 00:27:05;;;;;;;1.3;1.2;;;11.5;99.9;;;;;;;;;
2020/12/15 00:27:15;;;;;;;1.3;1.2;;;11.5;99.9;;;;;;;;;
2020/12/15 00:27:25;;;;;;;1.3;1.2;;;11.5;99.9;;;;;;;;;
2020/12/15 00:27:41;;;;;;;1.15;0.93;;;11.5;99.9;;;;;;;;;
2020/12/15 00:27:56;;;;;;;1.15;0.93;;;11.5;99.9;;;;;;;;;
2020/12/15 00:28:02;;;;;;;1.15;0.93;;;11.5;99.9;;;;;;;;;
2020/12/15 00:28:06;;;;;;;1.15;0.93;;;11.5;99.9;;;;;;;;;
2020/12/15 00:28:16;;;;;;;1.15;0.93;;;11.5;99.9;;;;;;;;;
2020/12/15 00:28:27;;;;;;;1.15;0.93;;;11.5;99.9;;;;;;;;;
2020/12/15 00:28:42;;;;;;;2.08;0.9;;;11.6;99.9;;;;;;;;;
2020/12/15 00:28:54;;;;;;;2.08;0.9;;;11.6;99.9;;;;;;;;;
2020/12/15 00:29:02;;;;;;;2.08;0.9;;;11.6;99.9;;;;;;;;;
2020/12/15 00:29:08;;;;;;;2.08;0.9;;;11.6;99.9;;;;;;;;;
2020/12/15 00:29:13;;;;;;;2.08;0.9;;;11.6;99.9;;;;;;;;;
2020/12/15 00:29:28;;;;;;;2.08;0.9;;;11.6;99.9;;;;;;;;;
2020/12/15 00:29:38;;;;;;;1.1;1;;;11.6;99.9;;;;;;;;;
2020/12/15 00:29:54;;;;;;;1.1;1;;;11.6;99.9;;;;;;;;;
2020/12/15 00:30:01;;;;;;;1.1;1;;;11.6;99.9;;;;;;;;;
2020/12/15 00:30:09;;;;;;;1.1;1;;;11.6;99.9;;;;;;;;;
2020/12/15 00:30:14;;;;;;;1.1;1;;;11.6;99.9;;;;;;;;;
2020/12/15 00:30:30;;;;;;;1.1;1;;;11.6;99.9;;;;;;;;;
2020/12/15 00:30:40;;;;;;;1.25;1;;;11.5;99.9;;;;;;;;;
2020/12/15 00:30:55;;;;;;;1.25;1;;;11.5;99.9;;;;;;;;;
2020/12/15 00:31:02;;;;;;;1.25;1;;;11.5;99.9;;;;;;;;;
2020/12/15 00:31:05;;;;;;;1.25;1;;;11.5;99.9;;;;;;;;;
2020/12/15 00:31:16;;;;;;;1.25;1;;;11.5;99.9;;;;;;;;;
2020/12/15 00:31:26;;;;;;;1.25;1;;;11.5;99.9;;;;;;;;;
2020/12/15 00:31:41;;;;;;;1.55;1.2;;;11.6;99.9;;;;;;;;;
2020/12/15 00:31:52;;;;;;;1.55;1.2;;;11.6;99.9;;;;;;;;;
2020/12/15 00:32:01;;;;;;;1.55;1.2;;;11.6;99.9;;;;;;;;;
2020/12/15 00:32:07;;;;;;;1.55;1.2;;;11.6;99.9;;;;;;;;;
2020/12/15 00:32:12;;;;;;;1.55;1.2;;;11.6;99.9;;;;;;;;;
2020/12/15 00:32:27;;;;;;;1.55;1.2;;;11.6;99.9;;;;;;;;;
2020/12/15 00:32:43;;;;;;;2.25;1.2;;;11.5;99.9;;;;;;;;;
2020/12/15 00:32:53;;;;;;;2.25;1.2;;;11.5;99.9;;;;;;;;;
2020/12/15 00:33:02;;;;;;;2.25;1.2;;;11.5;99.9;;;;;;;;;
2020/12/15 00:33:08;;;;;;;2.25;1.2;;;11.5;99.9;;;;;;;;;
2020/12/15 00:33:13;;;;;;;2.25;1.2;;;11.5;99.9;;;;;;;;;
2020/12/15 00:33:29;;;;;;;2.25;1.2;;;11.5;99.9;;;;;;;;;
2020/12/15 00:33:44;;;;;;;2.55;1.1;;;11.5;99.9;;;;;;;;;
2020/12/15 00:33:54;;;;;;;2.55;1.1;;;11.5;99.9;;;;;;;;;
2020/12/15 00:34:02;;;;;;;2.55;1.1;;;11.5;99.9;;;;;;;;;
2020/12/15 00:34:05;;;;;;;2.55;1.1;;;11.5;99.9;;;;;;;;;
2020/12/15 00:34:15;;;;;;;2.55;1.1;;;11.5;99.9;;;;;;;;;
2020/12/15 00:34:25;;;;;;;2.55;1.1;;;11.5;99.9;;;;;;;;;
2020/12/15 00:34:40;;;;;;;1.3;1.2;;;11.6;99.9;;;;;;;;;
2020/12/15 00:34:56;;;;;;;1.3;1.2;;;11.6;99.9;;;;;;;;;
2020/12/15 00:35:01;;;;;;;1.3;1.2;;;11.6;99.9;;;;;;;;;
2020/12/15 00:35:06;;;;;;;1.3;1.2;;;11.6;99.9;;;;;;;;;
2020/12/15 00:35:16;;;;;;;1.3;1.2;;;11.6;99.9;;;;;;;;;
2020/12/15 00:35:26;;;;;;;1.3;1.2;;;11.6;99.9;;;;;;;;;
2020/12/15 00:35:42;;;;;;;1.25;0.8;;;11.6;99.9;;;;;;;;;
2020/12/15 00:35:57;;;;;;;1.25;0.8;;;11.6;99.9;;;;;;;;;
2020/12/15 00:36:02;;;;;;;1.25;0.8;;;11.6;99.9;;;;;;;;;
2020/12/15 00:36:07;;;;;;;1.25;0.8;;;11.6;99.9;;;;;;;;;
2020/12/15 00:36:13;;;;;;;1.25;0.8;;;11.6;99.9;;;;;;;;;
2020/12/15 00:36:28;;;;;;;1.25;0.8;;;11.6;99.9;;;;;;;;;
2020/12/15 00:36:38;;;;;;;1.25;0.8;;;11.6;99.9;;;;;;;;;
2020/12/15 00:36:54;;;;;;;2.6;1.45;;;11.6;99.9;;;;;;;;;
2020/12/15 00:37:01;;;;;;;2.6;1.45;;;11.6;99.9;;;;;;;;;
2020/12/15 00:37:09;;;;;;;2.6;1.45;;;11.6;99.9;;;;;;;;;
2020/12/15 00:37:14;;;;;;;2.6;1.45;;;11.6;99.9;;;;;;;;;
2020/12/15 00:37:29;;;;;;;2.6;1.45;;;11.6;99.9;;;;;;;;;
2020/12/15 00:37:40;;;;;;;1.5;1.25;;;11.7;99.9;;;;;;;;;
2020/12/15 00:37:55;;;;;;;1.5;1.25;;;11.7;99.9;;;;;;;;;
2020/12/15 00:38:02;;;;;;;1.5;1.25;;;11.7;99.9;;;;;;;;;
2020/12/15 00:38:10;;;;;;;1.5;1.25;;;11.7;99.9;;;;;;;;;
2020/12/15 00:38:15;;;;;;;1.5;1.25;;;11.7;99.9;;;;;;;;;
2020/12/15 00:38:31;;;;;;;1.5;1.25;;;11.7;99.9;;;;;;;;;
2020/12/15 00:38:41;;;;;;;1.13;0.93;;;11.7;99.9;;;;;;;;;
2020/12/15 00:38:51;;;;;;;1.13;0.93;;;11.7;99.9;;;;;;;;;
2020/12/15 00:39:02;;;;;;;1.13;0.93;;;11.7;99.9;;;;;;;;;
2020/12/15 00:39:07;;;;;;;1.13;0.93;;;11.7;99.9;;;;;;;;;
2020/12/15 00:39:12;;;;;;;1.13;0.93;;;11.7;99.9;;;;;;;;;
2020/12/15 00:39:27;;;;;;;1.13;0.93;;;11.7;99.9;;;;;;;;;
2020/12/15 00:39:43;;;;;;;1.55;1.2;;;11.7;99.9;;;;;;;;;
2020/12/15 00:39:53;;;;;;;1.55;1.2;;;11.7;99.9;;;;;;;;;
2020/12/15 00:40:02;;;;;;;1.55;1.2;;;11.7;99.9;;;;;;;;;
2020/12/15 00:40:08;;;;;;;1.55;1.2;;;11.7;99.9;;;;;;;;;
2020/12/15 00:40:13;;;;;;;1.55;1.2;;;11.7;99.9;;;;;;;;;
2020/12/15 00:40:29;;;;;;;1.55;1.2;;;11.7;99.9;;;;;;;;;
2020/12/15 00:40:44;;;;;;;1.1;0.98;;;11.6;99.9;;;;;;;;;
2020/12/15 00:40:54;;;;;;;1.1;0.98;;;11.6;99.9;;;;;;;;;
2020/12/15 00:41:02;;;;;;;1.1;0.98;;;11.6;99.9;;;;;;;;;
2020/12/15 00:41:04;;;;;;;1.1;0.98;;;11.6;99.9;;;;;;;;;
2020/12/15 00:41:15;;;;;;;1.1;0.98;;;11.6;99.9;;;;;;;;;
2020/12/15 00:41:25;;;;;;;1.1;0.98;;;11.6;99.9;;;;;;;;;
2020/12/15 00:41:40;;;;;;;1.02;0.93;;;11.6;99.9;;;;;;;;;
2020/12/15 00:41:56;;;;;;;1.02;0.93;;;11.6;99.9;;;;;;;;;
2020/12/15 00:42:01;;;;;;;1.02;0.93;;;11.6;99.9;;;;;;;;;
2020/12/15 00:42:06;;;;;;;1.02;0.93;;;11.6;99.9;;;;;;;;;
2020/12/15 00:42:16;;;;;;;1.02;0.93;;;11.6;99.9;;;;;;;;;
2020/12/15 00:42:26;;;;;;;1.02;0.93;;;11.6;99.9;;;;;;;;;
2020/12/15 00:42:42;;;;;;;1.3;1.2;;;11.7;99.9;;;;;;;;;
2020/12/15 00:42:57;;;;;;;1.3;1.2;;;11.7;99.9;;;;;;;;;
2020/12/15 00:43:02;;;;;;;1.3;1.2;;;11.7;99.9;;;;;;;;;
2020/12/15 00:43:07;;;;;;;1.3;1.2;;;11.7;99.9;;;;;;;;;
2020/12/15 00:43:12;;;;;;;1.3;1.2;;;11.7;99.9;;;;;;;;;
2020/12/15 00:43:28;;;;;;;1.3;1.2;;;11.7;99.9;;;;;;;;;
2020/12/15 00:43:38;;;;;;;1.3;1.2;;;11.7;99.9;;;;;;;;;
2020/12/15 00:43:59;;;;;;;1.38;1.02;;;11.7;99.9;;;;;;;;;
2020/12/15 00:44:02;;;;;;;1.38;1.02;;;11.7;99.9;;;;;;;;;
2020/12/15 00:44:09;;;;;;;1.38;1.02;;;11.7;99.9;;;;;;;;;
2020/12/15 00:44:14;;;;;;;1.38;1.02;;;11.7;99.9;;;;;;;;;
2020/12/15 00:44:29;;;;;;;1.38;1.02;;;11.7;99.9;;;;;;;;;
2020/12/15 00:44:39;;;;;;;1.38;1.02;;;11.7;99.9;;;;;;;;;
2020/12/15 00:44:55;;;;;;;1.7;1.35;;;11.7;99.9;;;;;;;;;
2020/12/15 00:45:02;;;;;;;1.7;1.35;;;11.7;99.9;;;;;;;;;
2020/12/15 00:45:10;;;;;;;1.7;1.35;;;11.7;99.9;;;;;;;;;
2020/12/15 00:45:15;;;;;;;1.7;1.35;;;11.7;99.9;;;;;;;;;
2020/12/15 00:45:26;;;;;;;1.7;1.35;;;11.7;99.9;;;;;;;;;
2020/12/15 00:45:41;;;;;;;1.7;1.35;;;11.7;99.9;;;;;;;;;
2020/12/15 00:45:51;;;;;;;1;0.9;;;11.7;99.9;;;;;;;;;
2020/12/15 00:46:02;;;;;;;1;0.9;;;11.7;99.9;;;;;;;;;
2020/12/15 00:46:12;;;;;;;1;0.9;;;11.7;99.9;;;;;;;;;
2020/12/15 00:46:17;;;;;;;1;0.9;;;11.7;99.9;;;;;;;;;
2020/12/15 00:46:27;;;;;;;1;0.9;;;11.7;99.9;;;;;;;;;
2020/12/15 00:46:42;;;;;;;1.8;1;;;11.7;99.9;;;;;;;;;
2020/12/15 00:46:53;;;;;;;1.8;1;;;11.7;99.9;;;;;;;;;
2020/12/15 00:47:03;;;;;;;1.8;1;;;11.7;99.9;;;;;;;;;
2020/12/15 00:47:08;;;;;;;1.8;1;;;11.7;99.9;;;;;;;;;
2020/12/15 00:47:13;;;;;;;1.8;1;;;11.7;99.9;;;;;;;;;
2020/12/15 00:47:28;;;;;;;1.8;1;;;11.7;99.9;;;;;;;;;
2020/12/15 00:47:39;;;;;;;1.8;1;;;11.7;99.9;;;;;;;;;
2020/12/15 00:47:54;;;;;;;1.7;1.3;;;11.7;99.9;;;;;;;;;
2020/12/15 00:48:02;;;;;;;1.7;1.3;;;11.7;99.9;;;;;;;;;
2020/12/15 00:48:04;;;;;;;1.7;1.3;;;11.7;99.9;;;;;;;;;
2020/12/15 00:48:14;;;;;;;1.7;1.3;;;11.7;99.9;;;;;;;;;
2020/12/15 00:48:30;;;;;;;1.7;1.3;;;11.7;99.9;;;;;;;;;
2020/12/15 00:48:40;;;;;;;1.7;1.3;;;11.7;99.9;;;;;;;;;
2020/12/15 00:48:55;;;;;;;3.4;1.2;;;11.7;99.9;;;;;;;;;
2020/12/15 00:49:01;;;;;;;3.4;1.2;;;11.7;99.9;;;;;;;;;
2020/12/15 00:49:06;;;;;;;3.4;1.2;;;11.7;99.9;;;;;;;;;
2020/12/15 00:49:16;;;;;;;3.4;1.2;;;11.7;99.9;;;;;;;;;
2020/12/15 00:49:26;;;;;;;3.4;1.2;;;11.7;99.9;;;;;;;;;
2020/12/15 00:49:42;;;;;;;3.4;1.2;;;11.7;99.9;;;;;;;;;
2020/12/15 00:49:52;;;;;;;2.15;0.98;;;11.6;99.9;;;;;;;;;
2020/12/15 00:50:02;;;;;;;2.15;0.98;;;11.6;99.9;;;;;;;;;
2020/12/15 00:50:07;;;;;;;2.15;0.98;;;11.6;99.9;;;;;;;;;
2020/12/15 00:50:12;;;;;;;2.15;0.98;;;11.6;99.9;;;;;;;;;
2020/12/15 00:50:28;;;;;;;2.15;0.98;;;11.6;99.9;;;;;;;;;
2020/12/15 00:50:43;;;;;;;1.65;1.2;;;11.7;99.9;;;;;;;;;
2020/12/15 00:50:53;;;;;;;1.65;1.2;;;11.7;99.9;;;;;;;;;
2020/12/15 00:51:02;;;;;;;1.65;1.2;;;11.7;99.9;;;;;;;;;
2020/12/15 00:51:09;;;;;;;1.65;1.2;;;11.7;99.9;;;;;;;;;
2020/12/15 00:51:14;;;;;;;1.65;1.2;;;11.7;99.9;;;;;;;;;
2020/12/15 00:51:29;;;;;;;1.65;1.2;;;11.7;99.9;;;;;;;;;
2020/12/15 00:51:39;;;;;;;1.65;1.2;;;11.7;99.9;;;;;;;;;
2020/12/15 00:51:55;;;;;;;2.15;1.1;;;11.6;99.9;;;;;;;;;
2020/12/15 00:52:01;;;;;;;2.15;1.1;;;11.6;99.9;;;;;;;;;
2020/12/15 00:52:05;;;;;;;2.15;1.1;;;11.6;99.9;;;;;;;;;
2020/12/15 00:52:15;;;;;;;2.15;1.1;;;11.6;99.9;;;;;;;;;
2020/12/15 00:52:25;;;;;;;2.15;1.1;;;11.6;99.9;;;;;;;;;
2020/12/15 00:52:41;;;;;;;2.15;1.1;;;11.6;99.9;;;;;;;;;
2020/12/15 00:52:56;;;;;;;1.48;1.2;;;11.7;99.9;;;;;;;;;
2020/12/15 00:53:02;;;;;;;1.48;1.2;;;11.7;99.9;;;;;;;;;
2020/12/15 00:53:06;;;;;;;1.48;1.2;;;11.7;99.9;;;;;;;;;
2020/12/15 00:53:17;;;;;;;1.48;1.2;;;11.7;99.9;;;;;;;;;
2020/12/15 00:53:27;;;;;;;1.48;1.2;;;11.7;99.9;;;;;;;;;
2020/12/15 00:53:42;;;;;;;1.48;1.2;;;11.7;99.9;;;;;;;;;
2020/12/15 00:53:52;;;;;;;1.25;0.93;;;11.7;99.9;;;;;;;;;
2020/12/15 00:54:03;;;;;;;1.25;0.93;;;11.7;99.9;;;;;;;;;
2020/12/15 00:54:08;;;;;;;1.25;0.93;;;11.7;99.9;;;;;;;;;
2020/12/15 00:54:13;;;;;;;1.25;0.93;;;11.7;99.9;;;;;;;;;
2020/12/15 00:54:28;;;;;;;1.25;0.93;;;11.7;99.9;;;;;;;;;
2020/12/15 00:54:39;;;;;;;1.25;0.93;;;11.7;99.9;;;;;;;;;
2020/12/15 00:54:54;;;;;;;1.8;1.27;;;11.8;99.9;;;;;;;;;
2020/12/15 00:55:02;;;;;;;1.8;1.27;;;11.8;99.9;;;;;;;;;
2020/12/15 00:55:09;;;;;;;1.8;1.27;;;11.8;99.9;;;;;;;;;
2020/12/15 00:55:14;;;;;;;1.8;1.27;;;11.8;99.9;;;;;;;;;
2020/12/15 00:55:30;;;;;;;1.8;1.27;;;11.8;99.9;;;;;;;;;
2020/12/15 00:55:40;;;;;;;1.8;1.27;;;11.8;99.9;;;;;;;;;
2020/12/15 00:55:55;;;;;;;1.75;1.33;;;11.8;99.9;;;;;;;;;
2020/12/15 00:56:02;;;;;;;1.75;1.33;;;11.8;99.9;;;;;;;;;
2020/12/15 00:56:06;;;;;;;1.75;1.33;;;11.8;99.9;;;;;;;;;
2020/12/15 00:56:16;;;;;;;1.75;1.33;;;11.8;99.9;;;;;;;;;
2020/12/15 00:56:26;;;;;;;1.75;1.33;;;11.8;99.9;;;;;;;;;
2020/12/15 00:56:41;;;;;;;1.75;1.33;;;11.8;99.9;;;;;;;;;
2020/12/15 00:56:52;;;;;;;1.3;1.1;;;11.7;99.9;;;;;;;;;
2020/12/15 00:57:01;;;;;;;1.3;1.1;;;11.7;99.9;;;;;;;;;
2020/12/15 00:57:07;;;;;;;1.3;1.1;;;11.7;99.9;;;;;;;;;
2020/12/15 00:57:12;;;;;;;1.3;1.1;;;11.7;99.9;;;;;;;;;
2020/12/15 00:57:27;;;;;;;1.3;1.1;;;11.7;99.9;;;;;;;;;
2020/12/15 00:57:43;;;;;;;1.3;1.1;;;11.7;99.9;;;;;;;;;
2020/12/15 00:57:53;;;;;;;1.42;1.2;;;11.8;99.9;;;;;;;;;
2020/12/15 00:58:02;;;;;;;1.42;1.2;;;11.8;99.9;;;;;;;;;
2020/12/15 00:58:09;;;;;;;1.42;1.2;;;11.8;99.9;;;;;;;;;
2020/12/15 00:58:14;;;;;;;1.42;1.2;;;11.8;99.9;;;;;;;;;
2020/12/15 00:58:29;;;;;;;1.42;1.2;;;11.8;99.9;;;;;;;;;
2020/12/15 00:58:39;;;;;;;1.42;1.2;;;11.8;99.9;;;;;;;;;
2020/12/15 00:58:54;;;;;;;3.38;1.52;;;11.8;99.9;;;;;;;;;
2020/12/15 00:59:01;;;;;;;3.38;1.52;;;11.8;99.9;;;;;;;;;
2020/12/15 00:59:05;;;;;;;3.38;1.52;;;11.8;99.9;;;;;;;;;
2020/12/15 00:59:15;;;;;;;3.38;1.52;;;11.8;99.9;;;;;;;;;
2020/12/15 00:59:25;;;;;;;3.38;1.52;;;11.8;99.9;;;;;;;;;
2020/12/15 00:59:41;;;;;;;3.38;1.52;;;11.8;99.9;;;;;;;;;
2020/12/15 00:59:58;;;;;;;1.5;1.13;;;11.7;99.9;;;;;;;;;
2020/12/15 01:00:02;;;;;;;1.5;1.13;;;11.7;99.9;;;;;;;;;
2020/12/15 01:00:06;;;;;;;1.5;1.13;;;11.7;99.9;;;;;;;;;
2020/12/15 01:00:16;;;;;;;1.5;1.13;;;11.7;99.9;;;;;;;;;
2020/12/15 01:00:27;;;;;;;1.5;1.13;;;11.7;99.9;;;;;;;;;
2020/12/15 01:00:42;;;;;;;1.5;1.13;;;11.7;99.9;;;;;;;;;
2020/12/15 01:00:52;;;;;;;1.45;1.3;;;11.6;99.9;;;;;;;;;
2020/12/15 01:01:02;;;;;;;1.45;1.3;;;11.6;99.9;;;;;;;;;
2020/12/15 01:01:08;;;;;;;1.45;1.3;;;11.6;99.9;;;;;;;;;
2020/12/15 01:01:13;;;;;;;1.45;1.3;;;11.6;99.9;;;;;;;;;
2020/12/15 01:01:28;;;;;;;1.45;1.3;;;11.6;99.9;;;;;;;;;
2020/12/15 01:01:38;;;;;;;1.45;1.3;;;11.6;99.9;;;;;;;;;
2020/12/15 01:01:54;;;;;;;1.42;1.02;;;11.7;99.9;;;;;;;;;
2020/12/15 01:02:01;;;;;;;1.42;1.02;;;11.7;99.9;;;;;;;;;
2020/12/15 01:02:09;;;;;;;1.42;1.02;;;11.7;99.9;;;;;;;;;
2020/12/15 01:02:19;;;;;;;1.42;1.02;;;11.7;99.9;;;;;;;;;
2020/12/15 01:02:30;;;;;;;1.42;1.02;;;11.7;99.9;;;;;;;;;
2020/12/15 01:02:40;;;;;;;1.42;1.02;;;11.7;99.9;;;;;;;;;
2020/12/15 01:02:55;;;;;;;2.85;1.2;;;11.7;99.9;;;;;;;;;
2020/12/15 01:03:02;;;;;;;2.85;1.2;;;11.7;99.9;;;;;;;;;
2020/12/15 01:03:05;;;;;;;2.85;1.2;;;11.7;99.9;;;;;;;;;
2020/12/15 01:03:16;;;;;;;2.85;1.2;;;11.7;99.9;;;;;;;;;
2020/12/15 01:03:26;;;;;;;2.85;1.2;;;11.7;99.9;;;;;;;;;
2020/12/15 01:03:41;;;;;;;2.85;1.2;;;11.7;99.9;;;;;;;;;
2020/12/15 01:03:52;;;;;;;1.85;1.23;;;11.7;99.9;;;;;;;;;
2020/12/15 01:04:01;;;;;;;1.85;1.23;;;11.7;99.9;;;;;;;;;
2020/12/15 01:04:07;;;;;;;1.85;1.23;;;11.7;99.9;;;;;;;;;
2020/12/15 01:04:17;;;;;;;1.85;1.23;;;11.7;99.9;;;;;;;;;
2020/12/15 01:04:32;;;;;;;1.85;1.23;;;11.7;99.9;;;;;;;;;
2020/12/15 01:04:43;;;;;;;1.85;1.23;;;11.7;99.9;;;;;;;;;
2020/12/15 01:04:55;;;;;;;3.6;1.17;;;11.7;99.9;;;;;;;;;
2020/12/15 01:05:02;;;;;;;3.6;1.17;;;11.7;99.9;;;;;;;;;
2020/12/15 01:05:08;;;;;;;3.6;1.17;;;11.7;99.9;;;;;;;;;
2020/12/15 01:05:13;;;;;;;3.6;1.17;;;11.7;99.9;;;;;;;;;
2020/12/15 01:05:29;;;;;;;3.6;1.17;;;11.7;99.9;;;;;;;;;
2020/12/15 01:05:39;;;;;;;3.6;1.17;;;11.7;99.9;;;;;;;;;
2020/12/15 01:05:54;;;;;;;1.2;1.1;;;11.7;99.9;;;;;;;;;
2020/12/15 01:06:02;;;;;;;1.2;1.1;;;11.7;99.9;;;;;;;;;
2020/12/15 01:06:05;;;;;;;1.2;1.1;;;11.7;99.9;;;;;;;;;
2020/12/15 01:06:15;;;;;;;1.2;1.1;;;11.7;99.9;;;;;;;;;
2020/12/15 01:06:30;;;;;;;1.2;1.1;;;11.7;99.9;;;;;;;;;
2020/12/15 01:06:46;;;;;;;1.2;1.1;;;11.7;99.9;;;;;;;;;
2020/12/15 01:06:56;;;;;;;1.85;0.85;;;11.7;99.9;;;;;;;;;
2020/12/15 01:07:02;;;;;;;1.85;0.85;;;11.7;99.9;;;;;;;;;
2020/12/15 01:07:06;;;;;;;1.85;0.85;;;11.7;99.9;;;;;;;;;
2020/12/15 01:07:16;;;;;;;1.85;0.85;;;11.7;99.9;;;;;;;;;
2020/12/15 01:07:26;;;;;;;1.85;0.85;;;11.7;99.9;;;;;;;;;
2020/12/15 01:07:42;;;;;;;1.85;0.85;;;11.7;99.9;;;;;;;;;
2020/12/15 01:07:53;;;;;;;2.25;1.52;;;11.7;99.9;;;;;;;;;
2020/12/15 01:08:02;;;;;;;2.25;1.52;;;11.7;99.9;;;;;;;;;
2020/12/15 01:08:07;;;;;;;2.25;1.52;;;11.7;99.9;;;;;;;;;
2020/12/15 01:08:13;;;;;;;2.25;1.52;;;11.7;99.9;;;;;;;;;
2020/12/15 01:08:28;;;;;;;2.25;1.52;;;11.7;99.9;;;;;;;;;
2020/12/15 01:08:43;;;;;;;2.25;1.52;;;11.7;99.9;;;;;;;;;
2020/12/15 01:08:59;;;;;;;1.2;1;;;11.7;99.9;;;;;;;;;
2020/12/15 01:09:01;;;;;;;1.2;1;;;11.7;99.9;;;;;;;;;
2020/12/15 01:09:09;;;;;;;1.2;1;;;11.7;99.9;;;;;;;;;
2020/12/15 01:09:14;;;;;;;1.2;1;;;11.7;99.9;;;;;;;;;
2020/12/15 01:09:29;;;;;;;1.2;1;;;11.7;99.9;;;;;;;;;
2020/12/15 01:09:40;;;;;;;1.2;1;;;11.7;99.9;;;;;;;;;
2020/12/15 01:09:55;;;;;;;1.25;1;;;11.7;99.9;;;;;;;;;
2020/12/15 01:10:02;;;;;;;1.25;1;;;11.7;99.9;;;;;;;;;
2020/12/15 01:10:05;;;;;;;1.25;1;;;11.7;99.9;;;;;;;;;
2020/12/15 01:10:15;;;;;;;1.25;1;;;11.7;99.9;;;;;;;;;
2020/12/15 01:10:26;;;;;;;1.25;1;;;11.7;99.9;;;;;;;;;
2020/12/15 01:10:41;;;;;;;1.25;1;;;11.7;99.9;;;;;;;;;
2020/12/15 01:10:56;;;;;;;1.27;1;;;11.7;99.9;;;;;;;;;
2020/12/15 01:11:02;;;;;;;1.27;1;;;11.7;99.9;;;;;;;;;
2020/12/15 01:11:12;;;;;;;1.27;1;;;11.7;99.9;;;;;;;;;
2020/12/15 01:11:17;;;;;;;1.27;1;;;11.7;99.9;;;;;;;;;
2020/12/15 01:11:27;;;;;;;1.27;1;;;11.7;99.9;;;;;;;;;
2020/12/15 01:11:43;;;;;;;1.27;1;;;11.7;99.9;;;;;;;;;
2020/12/15 01:11:53;;;;;;;1.65;1.25;;;11.7;99.9;;;;;;;;;
2020/12/15 01:12:02;;;;;;;1.65;1.25;;;11.7;99.9;;;;;;;;;
2020/12/15 01:12:08;;;;;;;1.65;1.25;;;11.7;99.9;;;;;;;;;
2020/12/15 01:12:13;;;;;;;1.65;1.25;;;11.7;99.9;;;;;;;;;
2020/12/15 01:12:29;;;;;;;1.65;1.25;;;11.7;99.9;;;;;;;;;
2020/12/15 01:12:39;;;;;;;1.65;1.25;;;11.7;99.9;;;;;;;;;
2020/12/15 01:12:54;;;;;;;1.4;1.3;;;11.7;99.9;;;;;;;;;
2020/12/15 01:13:02;;;;;;;1.4;1.3;;;11.7;99.9;;;;;;;;;
2020/12/15 01:13:10;;;;;;;1.4;1.3;;;11.7;99.9;;;;;;;;;
2020/12/15 01:13:15;;;;;;;1.4;1.3;;;11.7;99.9;;;;;;;;;
2020/12/15 01:13:30;;;;;;;1.4;1.3;;;11.7;99.9;;;;;;;;;
2020/12/15 01:13:40;;;;;;;1.4;1.3;;;11.7;99.9;;;;;;;;;
2020/12/15 01:13:56;;;;;;;2.08;1.1;;;11.7;99.9;;;;;;;;;
2020/12/15 01:14:02;;;;;;;2.08;1.1;;;11.7;99.9;;;;;;;;;
2020/12/15 01:14:06;;;;;;;2.08;1.1;;;11.7;99.9;;;;;;;;;
2020/12/15 01:14:16;;;;;;;2.08;1.1;;;11.7;99.9;;;;;;;;;
2020/12/15 01:14:26;;;;;;;2.08;1.1;;;11.7;99.9;;;;;;;;;
2020/12/15 01:14:42;;;;;;;2.08;1.1;;;11.7;99.9;;;;;;;;;
2020/12/15 01:14:52;;;;;;;1.3;1.2;;;11.7;99.9;;;;;;;;;
2020/12/15 01:15:02;;;;;;;1.3;1.2;;;11.7;99.9;;;;;;;;;
2020/12/15 01:15:07;;;;;;;1.3;1.2;;;11.7;99.9;;;;;;;;;
2020/12/15 01:15:12;;;;;;;1.3;1.2;;;11.7;99.9;;;;;;;;;
2020/12/15 01:15:28;;;;;;;1.3;1.2;;;11.7;99.9;;;;;;;;;
2020/12/15 01:15:43;;;;;;;1.3;1.2;;;11.7;99.9;;;;;;;;;
2020/12/15 01:15:53;;;;;;;1.2;1.1;;;11.7;99.9;;;;;;;;;
2020/12/15 01:16:01;;;;;;;1.2;1.1;;;11.7;99.9;;;;;;;;;
2020/12/15 01:16:09;;;;;;;1.2;1.1;;;11.7;99.9;;;;;;;;;
2020/12/15 01:16:14;;;;;;;1.2;1.1;;;11.7;99.9;;;;;;;;;
2020/12/15 01:16:29;;;;;;;1.2;1.1;;;11.7;99.9;;;;;;;;;
2020/12/15 01:16:40;;;;;;;1.2;1.1;;;11.7;99.9;;;;;;;;;
2020/12/15 01:16:55;;;;;;;1.35;1.25;;;11.6;99.9;;;;;;;;;
2020/12/15 01:17:02;;;;;;;1.35;1.25;;;11.6;99.9;;;;;;;;;